createdAt,value
2019-03-01T00:00:27.960Z,58.93
2019-03-01T00:02:54.654Z,58.93
2019-03-01T00:05:31.205Z,58.79
2019-03-01T00:08:26.371Z,58.75
2019-03-01T00:11:11.444Z,58.67
2019-03-01T00:14:03.704Z,58.95
2019-03-01T00:16:48.558Z,59.02
2019-03-01T00:19:25.969Z,59.04
2019-03-01T00:22:08.201Z,59.32
2019-03-01T00:25:06.387Z,59.28
2019-03-01T00:28:04.465Z,59.44
2019-03-01T00:30:56.603Z,59.41
2019-03-01T00:33:51.844Z,59.52
2019-03-01T00:36:33.161Z,59.79
2019-03-01T00:39:13.521Z,59.81
2019-03-01T00:41:59.613Z,59.96
2019-03-01T00:44:39.266Z,60.08
2019-03-01T00:47:05.854Z,60.37
2019-03-01T00:49:32.463Z,60.33
2019-03-01T00:51:59.083Z,60.43
2019-03-01T00:54:25.682Z,60.40
2019-03-01T00:56:52.302Z,59.87
2019-03-01T00:59:18.897Z,59.49
2019-03-01T01:01:45.601Z,59.17
2019-03-01T01:04:12.188Z,59.11
2019-03-01T01:06:38.802Z,58.87
2019-03-01T01:09:05.544Z,58.83
2019-03-01T01:11:32.141Z,58.95
2019-03-01T01:13:58.724Z,58.75
2019-03-01T01:16:25.322Z,58.89
2019-03-01T01:18:51.914Z,59.23
2019-03-01T01:21:18.526Z,59.44
2019-03-01T01:23:45.210Z,59.68
2019-03-01T01:26:11.802Z,59.97
2019-03-01T01:28:38.497Z,60.00
2019-03-01T01:31:05.089Z,60.30
2019-03-01T01:33:31.702Z,60.48
2019-03-01T01:35:58.298Z,60.79
2019-03-01T01:38:25.044Z,61.00
2019-03-01T01:40:51.684Z,61.18
2019-03-01T01:43:18.274Z,61.45
2019-03-01T01:45:44.878Z,61.73
2019-03-01T01:48:11.499Z,61.93
2019-03-01T01:50:38.194Z,62.02
2019-03-01T01:53:04.895Z,62.08
2019-03-01T01:55:31.479Z,62.31
2019-03-01T01:57:58.087Z,62.64
2019-03-01T02:00:24.720Z,62.85
2019-03-01T02:02:51.312Z,63.44
2019-03-01T02:05:18.115Z,63.57
2019-03-01T02:07:44.715Z,63.41
2019-03-01T02:10:11.322Z,63.75
2019-03-01T02:12:38.009Z,63.65
2019-03-01T02:15:05.204Z,63.75
2019-03-01T02:17:31.829Z,63.65
2019-03-01T02:19:58.425Z,63.65
2019-03-01T02:22:25.034Z,63.56
2019-03-01T02:24:51.624Z,63.21
2019-03-01T02:27:36.346Z,62.80
2019-03-01T02:30:04.628Z,62.56
2019-03-01T02:32:41.191Z,62.56
2019-03-01T02:35:08.764Z,62.56
2019-03-01T02:37:35.462Z,62.78
2019-03-01T02:40:02.070Z,62.88
2019-03-01T02:42:28.646Z,62.97
2019-03-01T02:44:55.363Z,63.07
2019-03-01T02:47:21.955Z,63.36
2019-03-01T02:49:48.551Z,63.26
2019-03-01T02:52:15.235Z,63.45
2019-03-01T02:54:41.855Z,63.36
2019-03-01T02:57:08.462Z,63.08
2019-03-01T02:59:35.062Z,62.81
2019-03-01T03:02:01.746Z,62.54
2019-03-01T03:04:28.527Z,62.28
2019-03-01T03:07:00.347Z,62.06
2019-03-01T03:09:26.945Z,61.63
2019-03-01T03:11:53.645Z,61.41
2019-03-01T03:14:20.235Z,61.35
2019-03-01T03:16:46.939Z,61.04
2019-03-01T03:19:13.531Z,60.97
2019-03-01T03:21:40.105Z,60.93
2019-03-01T03:24:06.695Z,60.97
2019-03-01T03:26:33.295Z,60.91
2019-03-01T03:28:59.890Z,61.04
2019-03-01T03:31:26.522Z,61.20
2019-03-01T03:33:53.119Z,61.37
2019-03-01T03:36:19.826Z,61.64
2019-03-01T03:38:46.514Z,61.44
2019-03-01T03:41:13.197Z,61.29
2019-03-01T03:43:39.821Z,61.19
2019-03-01T03:46:06.406Z,61.09
2019-03-01T03:48:33.005Z,61.01
2019-03-01T03:50:59.608Z,61.06
2019-03-01T03:53:26.288Z,61.25
2019-03-01T03:55:52.894Z,61.16
2019-03-01T03:58:19.694Z,61.12
2019-03-01T04:00:46.517Z,61.11
2019-03-01T04:03:13.116Z,60.90
2019-03-01T04:05:39.837Z,60.74
2019-03-01T04:08:06.734Z,60.69
2019-03-01T04:10:33.353Z,60.72
2019-03-01T04:13:00.050Z,60.81
2019-03-01T04:15:26.634Z,60.83
2019-03-01T04:17:53.257Z,60.60
2019-03-01T04:20:19.852Z,60.51
2019-03-01T04:22:46.562Z,60.49
2019-03-01T04:25:13.839Z,60.52
2019-03-01T04:27:40.558Z,60.46
2019-03-01T04:30:08.930Z,60.54
2019-03-01T04:32:35.623Z,60.49
2019-03-01T04:35:02.331Z,60.53
2019-03-01T04:37:28.941Z,60.40
2019-03-01T04:39:55.531Z,60.49
2019-03-01T04:42:22.122Z,60.54
2019-03-01T04:44:48.713Z,60.53
2019-03-01T04:47:15.313Z,60.80
2019-03-01T04:49:41.915Z,61.28
2019-03-01T04:52:37.234Z,61.68
2019-03-01T04:55:08.080Z,62.12
2019-03-01T04:57:34.711Z,62.89
2019-03-01T05:00:01.322Z,64.00
2019-03-01T05:02:28.009Z,63.56
2019-03-01T05:04:54.593Z,64.35
2019-03-01T05:07:21.182Z,64.99
2019-03-01T05:09:47.775Z,65.17
2019-03-01T05:12:14.484Z,66.16
2019-03-01T05:14:41.115Z,66.76
2019-03-01T05:17:07.705Z,66.98
2019-03-01T05:19:34.393Z,67.48
2019-03-01T05:22:00.984Z,67.88
2019-03-01T05:24:27.579Z,68.21
2019-03-01T05:26:54.275Z,68.44
2019-03-01T05:29:20.881Z,68.69
2019-03-01T05:31:47.477Z,69.08
2019-03-01T05:34:14.068Z,69.52
2019-03-01T05:36:40.662Z,69.73
2019-03-01T05:39:07.293Z,69.90
2019-03-01T05:41:33.892Z,70.01
2019-03-01T05:44:00.494Z,70.31
2019-03-01T05:46:27.116Z,70.67
2019-03-01T05:48:53.826Z,70.91
2019-03-01T05:51:20.434Z,71.25
2019-03-01T05:53:47.020Z,71.62
2019-03-01T05:56:13.656Z,71.55
2019-03-01T05:58:42.087Z,71.96
2019-03-01T06:01:10.802Z,72.44
2019-03-01T06:04:03.024Z,72.22
2019-03-01T06:06:55.323Z,72.45
2019-03-01T06:09:41.426Z,72.60
2019-03-01T06:12:30.566Z,72.66
2019-03-01T06:15:01.522Z,72.79
2019-03-01T06:17:36.997Z,72.97
2019-03-01T06:20:13.038Z,73.08
2019-03-01T06:22:58.459Z,73.33
2019-03-01T06:25:29.466Z,73.27
2019-03-01T06:28:24.757Z,73.29
2019-03-01T06:31:07.020Z,73.28
2019-03-01T06:33:55.632Z,73.37
2019-03-01T06:36:35.315Z,73.44
2019-03-01T06:39:23.449Z,73.56
2019-03-01T06:42:15.830Z,73.56
2019-03-01T06:45:20.118Z,73.52
2019-03-01T06:47:50.263Z,73.60
2019-03-01T06:50:21.448Z,73.62
2019-03-01T06:52:48.190Z,73.88
2019-03-01T06:55:31.183Z,73.91
2019-03-01T06:57:57.912Z,74.07
2019-03-01T07:00:24.721Z,73.60
2019-03-01T07:02:56.179Z,73.49
2019-03-01T07:05:22.801Z,73.20
2019-03-01T07:07:49.418Z,73.29
2019-03-01T07:10:18.074Z,73.73
2019-03-01T07:12:44.767Z,73.98
2019-03-01T07:15:11.487Z,74.20
2019-03-01T07:17:38.099Z,74.42
2019-03-01T07:20:04.889Z,74.57
2019-03-01T07:22:31.548Z,74.68
2019-03-01T07:24:58.207Z,74.60
2019-03-01T07:27:24.797Z,74.76
2019-03-01T07:29:51.416Z,74.75
2019-03-01T07:32:18.053Z,74.75
2019-03-01T07:34:44.707Z,74.70
2019-03-01T07:37:11.407Z,74.79
2019-03-01T07:39:38.034Z,74.81
2019-03-01T07:42:04.674Z,74.73
2019-03-01T07:44:31.381Z,74.77
2019-03-01T07:46:57.997Z,74.85
2019-03-01T07:49:24.632Z,75.12
2019-03-01T07:51:51.247Z,75.08
2019-03-01T07:54:18.156Z,75.11
2019-03-01T07:56:44.789Z,75.48
2019-03-01T07:59:11.446Z,76.53
2019-03-01T08:01:38.181Z,77.00
2019-03-01T08:04:04.795Z,76.75
2019-03-01T08:06:31.485Z,75.60
2019-03-01T08:08:58.112Z,74.60
2019-03-01T08:11:24.851Z,73.47
2019-03-01T08:13:53.119Z,71.35
2019-03-01T08:16:21.273Z,71.37
2019-03-01T08:18:48.291Z,70.17
2019-03-01T08:21:15.052Z,68.55
2019-03-01T08:23:41.741Z,70.51
2019-03-01T08:26:08.359Z,70.03
2019-03-01T08:28:35.082Z,69.22
2019-03-01T08:31:01.711Z,70.48
2019-03-01T08:33:28.362Z,69.67
2019-03-01T08:35:54.990Z,70.61
2019-03-01T08:38:21.724Z,70.53
2019-03-01T08:40:49.883Z,71.24
2019-03-01T08:43:16.937Z,70.51
2019-03-01T08:45:43.542Z,71.00
2019-03-01T08:48:10.266Z,70.65
2019-03-01T08:50:36.991Z,70.23
2019-03-01T08:53:03.730Z,70.56
2019-03-01T08:55:30.460Z,70.72
2019-03-01T08:57:59.697Z,70.83
2019-03-01T09:00:28.039Z,71.25
2019-03-01T09:02:55.815Z,71.28
2019-03-01T09:05:22.414Z,71.63
2019-03-01T09:07:49.030Z,71.92
2019-03-01T09:10:16.270Z,72.21
2019-03-01T09:12:42.973Z,72.08
2019-03-01T09:15:10.578Z,72.20
2019-03-01T09:17:37.300Z,72.48
2019-03-01T09:20:04.228Z,72.11
2019-03-01T09:22:30.979Z,72.11
2019-03-01T09:24:57.691Z,71.75
2019-03-01T09:27:26.818Z,71.19
2019-03-01T09:29:52.927Z,70.94
2019-03-01T09:32:19.565Z,71.22
2019-03-01T09:34:48.629Z,71.62
2019-03-01T09:37:15.339Z,70.52
2019-03-01T09:39:42.053Z,70.81
2019-03-01T09:42:08.675Z,69.81
2019-03-01T09:44:38.313Z,69.63
2019-03-01T09:47:03.871Z,69.43
2019-03-01T09:49:30.593Z,69.91
2019-03-01T09:51:57.301Z,70.87
2019-03-01T09:54:23.940Z,71.00
2019-03-01T09:56:50.547Z,70.75
2019-03-01T09:59:17.177Z,71.42
2019-03-01T10:01:43.922Z,71.86
2019-03-01T10:04:10.627Z,71.92
2019-03-01T10:06:38.382Z,71.71
2019-03-01T10:09:09.207Z,71.53
2019-03-01T10:11:35.923Z,71.09
2019-03-01T10:14:02.540Z,71.20
2019-03-01T10:16:29.151Z,71.50
2019-03-01T10:18:55.905Z,71.84
2019-03-01T10:21:22.602Z,71.98
2019-03-01T10:23:49.209Z,71.89
2019-03-01T10:26:15.838Z,72.07
2019-03-01T10:28:42.474Z,72.34
2019-03-01T10:31:09.095Z,71.88
2019-03-01T10:33:35.802Z,72.05
2019-03-01T10:36:02.417Z,72.49
2019-03-01T10:38:29.116Z,72.31
2019-03-01T10:40:55.718Z,71.84
2019-03-01T10:43:23.480Z,72.33
2019-03-01T10:45:50.272Z,71.76
2019-03-01T10:48:17.020Z,72.03
2019-03-01T10:50:43.652Z,71.80
2019-03-01T10:53:10.379Z,71.37
2019-03-01T10:55:37.061Z,70.12
2019-03-01T10:58:03.658Z,71.01
2019-03-01T11:00:30.403Z,70.87
2019-03-01T11:02:57.006Z,70.82
2019-03-01T11:05:23.637Z,70.31
2019-03-01T11:07:50.384Z,70.37
2019-03-01T11:10:23.933Z,71.17
2019-03-01T11:12:50.578Z,71.00
2019-03-01T11:15:17.312Z,71.09
2019-03-01T11:17:44.032Z,71.44
2019-03-01T11:20:10.883Z,71.10
2019-03-01T11:22:37.608Z,71.24
2019-03-01T11:25:04.890Z,71.53
2019-03-01T11:27:31.627Z,71.89
2019-03-01T11:29:58.315Z,71.87
2019-03-01T11:32:24.945Z,71.94
2019-03-01T11:34:51.537Z,72.24
2019-03-01T11:37:18.217Z,72.67
2019-03-01T11:39:44.910Z,73.29
2019-03-01T11:42:11.659Z,72.67
2019-03-01T11:44:38.354Z,71.63
2019-03-01T11:47:05.037Z,71.62
2019-03-01T11:49:31.741Z,71.70
2019-03-01T11:51:58.395Z,72.08
2019-03-01T11:54:25.105Z,72.33
2019-03-01T11:56:53.632Z,72.30
2019-03-01T11:59:20.244Z,71.12
2019-03-01T12:01:47.085Z,71.19
2019-03-01T12:04:13.703Z,71.38
2019-03-01T12:06:40.446Z,71.00
2019-03-01T12:09:07.142Z,73.20
2019-03-01T12:11:33.738Z,70.56
2019-03-01T12:14:00.468Z,70.32
2019-03-01T12:16:27.091Z,69.30
2019-03-01T12:18:53.684Z,69.84
2019-03-01T12:21:20.290Z,70.88
2019-03-01T12:23:46.894Z,70.81
2019-03-01T12:26:13.558Z,69.46
2019-03-01T12:28:40.272Z,70.12
2019-03-01T12:31:06.870Z,69.94
2019-03-01T12:33:33.476Z,70.25
2019-03-01T12:36:00.098Z,70.87
2019-03-01T12:38:26.707Z,71.48
2019-03-01T12:40:53.332Z,70.68
2019-03-01T12:43:20.028Z,70.75
2019-03-01T12:45:46.632Z,70.57
2019-03-01T12:48:13.444Z,70.85
2019-03-01T12:50:40.058Z,70.72
2019-03-01T12:53:06.749Z,70.43
2019-03-01T12:55:33.352Z,70.21
2019-03-01T12:57:59.949Z,69.92
2019-03-01T13:00:27.492Z,70.03
2019-03-01T13:02:54.118Z,70.28
2019-03-01T13:05:20.838Z,70.89
2019-03-01T13:07:47.509Z,70.04
2019-03-01T13:10:36.675Z,70.66
2019-03-01T13:13:08.978Z,70.37
2019-03-01T13:15:35.615Z,70.36
2019-03-01T13:18:03.442Z,69.95
2019-03-01T13:20:38.039Z,70.51
2019-03-01T13:23:11.988Z,70.99
2019-03-01T13:25:38.593Z,71.21
2019-03-01T13:28:05.342Z,71.26
2019-03-01T13:30:32.540Z,71.22
2019-03-01T13:33:10.270Z,70.60
2019-03-01T13:35:36.919Z,70.98
2019-03-01T13:38:04.022Z,72.05
2019-03-01T13:40:38.318Z,72.24
2019-03-01T13:43:04.921Z,72.28
2019-03-01T13:45:31.636Z,72.38
2019-03-01T13:47:58.351Z,72.23
2019-03-01T13:50:24.961Z,71.91
2019-03-01T13:52:51.670Z,71.92
2019-03-01T13:55:21.561Z,72.14
2019-03-01T13:57:53.370Z,72.54
2019-03-01T14:00:20.098Z,72.21
2019-03-01T14:02:47.880Z,72.20
2019-03-01T14:05:17.123Z,72.49
2019-03-01T14:07:55.563Z,72.90
2019-03-01T14:10:24.250Z,72.70
2019-03-01T14:12:50.895Z,73.17
2019-03-01T14:15:17.543Z,73.29
2019-03-01T14:17:44.215Z,73.12
2019-03-01T14:20:21.079Z,72.83
2019-03-01T14:22:54.591Z,72.93
2019-03-01T14:25:41.645Z,73.10
2019-03-01T14:28:15.783Z,73.18
2019-03-01T14:30:42.511Z,73.34
2019-03-01T14:33:11.087Z,72.94
2019-03-01T14:35:37.816Z,73.12
2019-03-01T14:38:04.554Z,73.31
2019-03-01T14:40:31.283Z,73.19
2019-03-01T14:43:00.871Z,73.34
2019-03-01T14:45:32.234Z,73.33
2019-03-01T14:47:58.868Z,73.35
2019-03-01T14:50:25.502Z,73.29
2019-03-01T14:52:56.734Z,73.05
2019-03-01T14:55:28.698Z,72.97
2019-03-01T14:57:57.194Z,72.80
2019-03-01T15:00:49.598Z,72.92
2019-03-01T15:03:38.084Z,73.08
2019-03-01T15:06:05.524Z,73.35
2019-03-01T15:08:32.170Z,73.38
2019-03-01T15:10:59.764Z,73.39
2019-03-01T15:13:27.876Z,73.36
2019-03-01T15:15:54.632Z,73.22
2019-03-01T15:18:21.240Z,73.22
2019-03-01T15:20:47.894Z,73.27
2019-03-01T15:23:15.174Z,73.53
2019-03-01T15:25:47.482Z,73.41
2019-03-01T15:28:13.285Z,72.72
2019-03-01T15:30:38.877Z,72.96
2019-03-01T15:33:08.508Z,72.88
2019-03-01T15:35:36.394Z,72.81
2019-03-01T15:38:02.695Z,73.00
2019-03-01T15:40:31.501Z,73.06
2019-03-01T15:43:04.409Z,72.75
2019-03-01T15:45:31.097Z,72.73
2019-03-01T15:47:58.750Z,72.68
2019-03-01T15:50:32.826Z,72.80
2019-03-01T15:52:59.537Z,72.75
2019-03-01T15:55:26.146Z,72.79
2019-03-01T15:57:53.058Z,72.64
2019-03-01T16:00:29.566Z,72.69
2019-03-01T16:03:02.623Z,72.40
2019-03-01T16:05:29.253Z,72.32
2019-03-01T16:07:55.848Z,72.25
2019-03-01T16:10:22.986Z,72.07
2019-03-01T16:12:49.606Z,71.97
2019-03-01T16:15:16.244Z,71.83
2019-03-01T16:17:42.979Z,71.99
2019-03-01T16:20:10.469Z,72.08
2019-03-01T16:22:37.081Z,71.67
2019-03-01T16:25:04.292Z,71.54
2019-03-01T16:27:30.909Z,71.64
2019-03-01T16:29:57.599Z,71.54
2019-03-01T16:32:24.226Z,71.38
2019-03-01T16:34:50.892Z,71.39
2019-03-01T16:37:17.616Z,71.38
2019-03-01T16:39:44.333Z,71.32
2019-03-01T16:42:11.060Z,71.37
2019-03-01T16:44:37.653Z,71.57
2019-03-01T16:47:06.789Z,71.56
2019-03-01T16:49:32.811Z,71.74
2019-03-01T16:51:59.583Z,71.82
2019-03-01T16:54:26.221Z,71.99
2019-03-01T16:56:52.820Z,72.32
2019-03-01T16:59:19.426Z,72.58
2019-03-01T17:01:46.044Z,72.67
2019-03-01T17:04:12.644Z,73.07
2019-03-01T17:06:39.259Z,73.44
2019-03-01T17:09:06.555Z,73.63
2019-03-01T17:11:33.167Z,73.77
2019-03-01T17:14:02.664Z,74.00
2019-03-01T17:16:34.245Z,74.21
2019-03-01T17:19:00.955Z,74.34
2019-03-01T17:21:27.559Z,74.34
2019-03-01T17:23:54.744Z,74.56
2019-03-01T17:26:21.367Z,74.64
2019-03-01T17:28:49.722Z,74.70
2019-03-01T17:31:44.256Z,74.74
2019-03-01T17:34:10.879Z,74.90
2019-03-01T17:36:37.492Z,74.92
2019-03-01T17:39:05.125Z,74.98
2019-03-01T17:41:31.842Z,75.08
2019-03-01T17:43:58.453Z,75.27
2019-03-01T17:46:25.539Z,75.21
2019-03-01T17:49:00.326Z,75.39
2019-03-01T17:51:28.826Z,75.45
2019-03-01T17:54:02.295Z,75.67
2019-03-01T17:56:29.027Z,75.75
2019-03-01T17:58:55.668Z,75.85
2019-03-01T18:01:22.472Z,75.93
2019-03-01T18:03:49.167Z,75.97
2019-03-01T18:06:16.854Z,76.04
2019-03-01T18:08:44.386Z,76.03
2019-03-01T18:11:11.092Z,76.11
2019-03-01T18:13:37.803Z,76.12
2019-03-01T18:16:04.504Z,76.15
2019-03-01T18:18:48.778Z,75.98
2019-03-01T18:21:13.095Z,75.88
2019-03-01T18:23:47.317Z,75.85
2019-03-01T18:26:14.103Z,75.81
2019-03-01T18:28:40.831Z,75.68
2019-03-01T18:31:07.464Z,75.80
2019-03-01T18:33:34.186Z,75.85
2019-03-01T18:36:00.938Z,76.05
2019-03-01T18:38:31.317Z,76.30
2019-03-01T18:41:02.718Z,76.40
2019-03-01T18:43:29.453Z,76.45
2019-03-01T18:45:56.158Z,76.64
2019-03-01T18:48:22.911Z,76.80
2019-03-01T18:50:49.573Z,76.80
2019-03-01T18:53:16.315Z,76.84
2019-03-01T18:55:43.036Z,76.83
2019-03-01T18:58:10.489Z,76.87
2019-03-01T19:00:38.499Z,76.86
2019-03-01T19:03:05.507Z,76.81
2019-03-01T19:05:43.493Z,76.91
2019-03-01T19:08:10.191Z,76.86
2019-03-01T19:10:36.912Z,76.91
2019-03-01T19:13:03.553Z,76.91
2019-03-01T19:15:30.174Z,76.93
2019-03-01T19:17:56.825Z,76.92
2019-03-01T19:20:24.220Z,76.92
2019-03-01T19:22:50.935Z,76.98
2019-03-01T19:25:31.663Z,77.00
2019-03-01T19:27:58.360Z,77.05
2019-03-01T19:30:25.083Z,77.05
2019-03-01T19:32:51.840Z,77.06
2019-03-01T19:35:18.849Z,77.10
2019-03-01T19:37:45.850Z,77.05
2019-03-01T19:40:23.659Z,77.11
2019-03-01T19:42:50.290Z,77.15
2019-03-01T19:45:17.022Z,77.08
2019-03-01T19:47:43.827Z,77.17
2019-03-01T19:50:11.426Z,77.12
2019-03-01T19:52:38.195Z,77.14
2019-03-01T19:55:07.955Z,77.19
2019-03-01T19:57:33.704Z,77.22
2019-03-01T20:00:00.377Z,77.24
2019-03-01T20:02:27.874Z,77.17
2019-03-01T20:04:55.868Z,77.18
2019-03-01T20:07:23.198Z,77.14
2019-03-01T20:09:50.001Z,77.08
2019-03-01T20:12:18.283Z,77.01
2019-03-01T20:14:45.188Z,76.86
2019-03-01T20:17:11.922Z,76.54
2019-03-01T20:19:38.649Z,76.43
2019-03-01T20:22:05.438Z,76.40
2019-03-01T20:24:32.069Z,76.22
2019-03-01T20:26:59.884Z,76.17
2019-03-01T20:29:33.632Z,76.18
2019-03-01T20:32:00.249Z,76.04
2019-03-01T20:34:26.963Z,76.07
2019-03-01T20:36:53.873Z,76.13
2019-03-01T20:39:28.331Z,76.13
2019-03-01T20:41:55.068Z,76.16
2019-03-01T20:44:21.830Z,76.20
2019-03-01T20:46:48.537Z,76.31
2019-03-01T20:49:15.147Z,76.42
2019-03-01T20:51:41.787Z,76.46
2019-03-01T20:54:08.511Z,76.50
2019-03-01T20:56:35.128Z,76.64
2019-03-01T20:59:01.831Z,76.62
2019-03-01T21:01:28.425Z,76.63
2019-03-01T21:03:55.059Z,76.70
2019-03-01T21:06:21.651Z,76.75
2019-03-01T21:08:48.277Z,76.79
2019-03-01T21:11:14.864Z,76.85
2019-03-01T21:13:41.461Z,76.84
2019-03-01T21:16:08.073Z,76.87
2019-03-01T21:18:34.853Z,76.89
2019-03-01T21:21:01.551Z,76.94
2019-03-01T21:23:28.238Z,76.97
2019-03-01T21:25:54.855Z,77.02
2019-03-01T21:28:21.470Z,77.04
2019-03-01T21:30:48.170Z,77.02
2019-03-01T21:33:14.786Z,77.08
2019-03-01T21:35:41.509Z,77.03
2019-03-01T21:38:10.618Z,77.07
2019-03-01T21:40:36.647Z,76.98
2019-03-01T21:43:03.271Z,76.99
2019-03-01T21:45:29.981Z,77.02
2019-03-01T21:47:56.594Z,76.95
2019-03-01T21:50:23.200Z,76.92
2019-03-01T21:52:49.841Z,77.00
2019-03-01T21:55:16.715Z,76.99
2019-03-01T21:57:43.410Z,76.98
2019-03-01T22:00:14.209Z,76.99
2019-03-01T22:02:40.834Z,77.03
2019-03-01T22:05:10.306Z,77.04
2019-03-01T22:07:37.201Z,76.95
2019-03-01T22:10:05.244Z,76.84
2019-03-01T22:12:31.931Z,76.77
2019-03-01T22:14:58.765Z,76.69
2019-03-01T22:17:25.449Z,76.60
2019-03-01T22:19:52.324Z,76.59
2019-03-01T22:22:19.010Z,76.63
2019-03-01T22:24:45.768Z,76.67
2019-03-01T22:27:12.454Z,76.69
2019-03-01T22:29:39.129Z,76.67
2019-03-01T22:32:07.404Z,76.71
2019-03-01T22:34:44.547Z,76.74
2019-03-01T22:37:11.338Z,76.74
2019-03-01T22:39:37.946Z,76.75
2019-03-01T22:42:04.579Z,76.91
2019-03-01T22:44:33.299Z,76.95
2019-03-01T22:47:06.181Z,76.88
2019-03-01T22:49:32.876Z,77.02
2019-03-01T22:51:59.573Z,77.10
2019-03-01T22:54:26.267Z,76.78
2019-03-01T22:56:52.867Z,76.54
2019-03-01T22:59:19.627Z,76.55
2019-03-01T23:01:48.505Z,76.60
2019-03-01T23:04:15.180Z,76.68
2019-03-01T23:06:41.802Z,76.66
2019-03-01T23:11:48.765Z,76.79
2019-03-01T23:14:15.477Z,76.84
2019-03-01T23:16:42.077Z,76.82
2019-03-01T23:19:08.762Z,76.84
2019-03-01T23:21:42.591Z,76.87
2019-03-01T23:24:09.202Z,77.07
2019-03-01T23:26:35.913Z,77.08
2019-03-01T23:29:02.509Z,77.18
2019-03-01T23:31:29.123Z,77.20
2019-03-01T23:33:55.803Z,77.22
2019-03-01T23:36:25.001Z,77.26
2019-03-01T23:38:57.002Z,77.26
2019-03-01T23:41:23.613Z,77.23
2019-03-01T23:43:50.313Z,77.32
2019-03-01T23:46:16.937Z,77.35
2019-03-01T23:48:45.585Z,77.43
2019-03-01T23:51:18.155Z,77.56
2019-03-01T23:53:44.879Z,77.70
2019-03-01T23:56:11.557Z,77.99
2019-03-01T23:58:38.173Z,78.13
